首页
METAR-TAF:

METAR-TAF

机场 :

Ashe County Airport

West Jefferson, 北卡罗来纳州, 美国

纬度: 36-26N, 经度: 081-25W, 海拔: 969米

当前天气观测

该预报发布于13分钟前的01:10 UTC
风速10节,风向西
温度 10°C
湿度 62%
气压 1021 hPa
能見度: 16.1公里
天空无云

METAR: KGEV 240110Z AUTO 28010KT 10SM CLR 10/03 A3016 RMK AO2 T00990032

时间: 21:23 (01:23 UTC)


TAF: 丢失

超过4000个机场的气象观测和天气预报(METAR&TAF报告)。

可查询的气象台以黄色和红色小点在地图上表示。

将鼠标移到小点上方,可查看气象台名称。

然后点击查看天气观测和预报。

如需切换地图:点击带黑十字的绿色按钮放大地图;点击带横线的绿色按钮缩小地图;或者点击绿色箭头查看邻近地区的地图。


METAR-TAF: